createdAt,value
2024-01-18T00:00:48.097Z,-0.42
2024-01-18T00:05:49.846Z,-0.43
2024-01-18T00:10:51.531Z,-0.42
2024-01-18T00:15:53.124Z,-0.42
2024-01-18T00:20:54.802Z,-0.39
2024-01-18T00:25:56.719Z,-0.32
2024-01-18T00:30:58.525Z,-0.27
2024-01-18T00:36:00.340Z,-0.26
2024-01-18T00:41:02.067Z,-0.24
2024-01-18T00:46:05.327Z,-0.44
2024-01-18T00:51:07.088Z,-0.49
2024-01-18T00:56:11.403Z,-0.56
2024-01-18T01:01:13.255Z,-0.54
2024-01-18T01:06:15.185Z,-0.50
2024-01-18T01:11:18.155Z,-0.47
2024-01-18T01:16:22.000Z,-0.56
2024-01-18T01:21:23.767Z,-0.61
2024-01-18T01:26:25.396Z,-0.59
2024-01-18T01:31:27.056Z,-0.69
2024-01-18T01:36:28.733Z,-0.80
2024-01-18T01:41:30.830Z,-0.94
2024-01-18T01:46:32.496Z,-0.80
2024-01-18T01:51:38.141Z,-0.82
2024-01-18T01:56:39.836Z,-0.83
2024-01-18T02:01:42.861Z,-0.89
2024-01-18T02:06:46.896Z,-0.86
2024-01-18T02:11:48.833Z,-0.85
2024-01-18T02:16:50.704Z,-0.92
2024-01-18T02:21:52.468Z,-1.11
2024-01-18T02:26:54.091Z,-1.03
2024-01-18T02:31:57.778Z,-1.04
2024-01-18T02:36:59.472Z,-0.97
2024-01-18T02:42:03.111Z,-1.08
2024-01-18T02:47:05.138Z,-1.04
2024-01-18T02:52:07.188Z,-1.07
2024-01-18T02:57:08.807Z,-1.12
2024-01-18T03:02:10.436Z,-1.22
2024-01-18T03:07:12.155Z,-1.24
2024-01-18T03:12:13.941Z,-1.32
2024-01-18T03:17:15.564Z,-1.39
2024-01-18T03:22:17.443Z,-1.41
2024-01-18T03:27:21.192Z,-1.45
2024-01-18T03:32:23.629Z,-1.50
2024-01-18T03:37:25.295Z,-1.52
2024-01-18T03:42:26.964Z,-1.64
2024-01-18T03:47:28.561Z,-1.66
2024-01-18T03:52:30.266Z,-1.78
2024-01-18T03:57:32.280Z,-1.77
2024-01-18T04:02:33.937Z,-1.81
2024-01-18T04:07:37.093Z,-1.89
2024-01-18T04:12:39.142Z,-1.89
2024-01-18T04:17:40.907Z,-2.08
2024-01-18T04:22:46.289Z,-2.12
2024-01-18T04:27:48.081Z,-2.13
2024-01-18T04:32:49.803Z,-2.28
2024-01-18T04:37:51.575Z,-2.24
2024-01-18T04:42:54.042Z,-2.16
2024-01-18T04:47:57.514Z,-2.27
2024-01-18T04:53:01.322Z,-2.38
2024-01-18T04:58:03.321Z,-2.42
2024-01-18T05:03:05.249Z,-2.47
2024-01-18T05:08:08.514Z,-2.41
2024-01-18T05:13:10.452Z,-2.39
2024-01-18T05:18:12.196Z,-2.40
2024-01-18T05:23:13.888Z,-2.32
2024-01-18T05:28:15.504Z,-2.36
2024-01-18T05:33:17.174Z,-2.42
2024-01-18T05:38:18.841Z,-2.47
2024-01-18T05:43:20.528Z,-2.60
2024-01-18T05:48:22.469Z,-2.47
2024-01-18T05:53:24.140Z,-2.53
2024-01-18T05:58:27.011Z,-2.49
2024-01-18T06:03:29.056Z,-2.47
2024-01-18T06:08:30.719Z,-2.58
2024-01-18T06:13:32.383Z,-2.63
2024-01-18T06:18:34.266Z,-2.71
2024-01-18T06:23:39.602Z,-2.61
2024-01-18T06:28:41.562Z,-2.57
2024-01-18T06:33:43.340Z,-2.76
2024-01-18T06:38:45.060Z,-2.77
2024-01-18T06:43:47.426Z,-2.70
2024-01-18T06:48:54.948Z,-2.71
2024-01-18T06:53:57.020Z,-2.88
2024-01-18T06:58:58.732Z,-2.86
2024-01-18T07:04:00.538Z,-2.92
2024-01-18T07:09:02.374Z,-2.97
2024-01-18T07:14:04.101Z,-2.93
2024-01-18T07:19:06.118Z,-3.00
2024-01-18T07:24:07.961Z,-2.93
2024-01-18T07:29:10.212Z,-2.94
2024-01-18T07:34:11.940Z,-2.96
2024-01-18T07:39:13.734Z,-2.92
2024-01-18T07:44:17.728Z,-2.82
2024-01-18T07:49:19.400Z,-2.89
2024-01-18T07:54:21.051Z,-2.94
2024-01-18T07:59:23.005Z,-3.02
2024-01-18T08:04:24.848Z,-2.98
2024-01-18T08:09:26.957Z,-2.77
2024-01-18T08:14:28.674Z,-2.59
2024-01-18T08:19:30.410Z,-2.74
2024-01-18T08:24:32.311Z,-2.66
2024-01-18T08:29:34.058Z,-2.71
2024-01-18T08:34:36.608Z,-2.66
2024-01-18T08:39:38.213Z,-2.71
2024-01-18T08:44:46.975Z,-2.58
2024-01-18T08:49:49.041Z,-2.43
2024-01-18T08:54:50.849Z,-2.38
2024-01-18T08:59:52.509Z,-2.43
2024-01-18T09:04:54.416Z,-2.38
2024-01-18T09:09:56.112Z,-2.54
2024-01-18T09:14:57.811Z,-2.50
2024-01-18T09:19:59.748Z,-2.33
2024-01-18T09:25:01.849Z,-2.36
2024-01-18T09:30:03.757Z,-2.28
2024-01-18T09:35:06.826Z,-2.13
2024-01-18T09:40:12.930Z,-2.19
2024-01-18T09:45:17.490Z,-2.35
2024-01-18T09:50:21.147Z,-2.39
2024-01-18T09:55:22.928Z,-2.08
2024-01-18T10:00:30.352Z,-1.93
2024-01-18T10:05:32.117Z,-1.64
2024-01-18T10:10:33.848Z,-1.36
2024-01-18T10:15:36.660Z,-1.43
2024-01-18T10:20:38.591Z,-1.52
2024-01-18T10:25:41.147Z,-1.55
2024-01-18T10:30:43.166Z,-1.51
2024-01-18T10:35:45.272Z,-1.14
2024-01-18T10:40:51.613Z,-1.40
2024-01-18T10:45:53.817Z,-1.73
2024-01-18T10:50:58.843Z,-2.35
2024-01-18T10:56:02.124Z,-2.25
2024-01-18T11:01:05.747Z,-2.22
2024-01-18T11:06:11.297Z,-1.69
2024-01-18T11:11:13.746Z,-1.79
2024-01-18T11:16:15.720Z,-1.87
2024-01-18T11:21:17.472Z,-1.74
2024-01-18T11:26:21.901Z,-1.62
2024-01-18T11:31:47.411Z,-1.81
2024-01-18T11:36:49.356Z,-1.73
2024-01-18T11:41:52.575Z,-1.78
2024-01-18T11:46:54.429Z,-2.07
2024-01-18T11:51:59.404Z,-2.15
2024-01-18T11:57:07.645Z,-2.10
2024-01-18T12:02:11.385Z,-2.00
2024-01-18T12:07:13.604Z,-1.84
2024-01-18T12:12:15.525Z,-2.20
2024-01-18T12:17:18.094Z,-2.36
2024-01-18T12:22:20.757Z,-2.22
2024-01-18T12:27:22.612Z,-2.18
2024-01-18T12:32:24.414Z,-2.07
2024-01-18T12:37:26.196Z,-2.45
2024-01-18T12:42:27.921Z,-2.48
2024-01-18T12:47:29.618Z,-2.37
2024-01-18T12:52:32.375Z,-2.32
2024-01-18T12:57:34.424Z,-2.67
2024-01-18T13:02:36.672Z,-2.54
2024-01-18T13:07:38.502Z,-2.61
2024-01-18T13:12:40.516Z,-2.41
2024-01-18T13:17:43.555Z,-2.29
2024-01-18T13:22:45.273Z,-1.96
2024-01-18T13:27:47.008Z,-1.87
2024-01-18T13:32:49.244Z,-1.62
2024-01-18T13:37:50.860Z,-1.43
2024-01-18T13:42:52.564Z,-1.62
2024-01-18T13:47:54.349Z,-1.48
2024-01-18T13:52:56.107Z,-1.83
2024-01-18T13:57:58.357Z,-1.96
2024-01-18T14:03:00.003Z,-2.17
2024-01-18T14:08:02.101Z,-2.22
2024-01-18T14:13:05.014Z,-2.23
2024-01-18T14:18:07.916Z,-1.94
2024-01-18T14:23:09.521Z,-2.01
2024-01-18T14:28:13.120Z,-1.68
2024-01-18T14:33:15.113Z,-1.48
2024-01-18T14:38:17.021Z,-1.48
2024-01-18T14:43:19.831Z,-1.90
2024-01-18T14:48:21.648Z,-2.09
2024-01-18T14:53:23.375Z,-2.08
2024-01-18T14:58:24.957Z,-2.22
2024-01-18T15:03:26.659Z,-2.23
2024-01-18T15:08:28.433Z,-2.39
2024-01-18T15:13:30.092Z,-2.50
2024-01-18T15:18:31.947Z,-2.49
2024-01-18T15:23:33.689Z,-2.63
2024-01-18T15:28:36.732Z,-2.79
2024-01-18T15:33:41.796Z,-2.85
2024-01-18T15:38:43.559Z,-2.88
2024-01-18T15:43:45.228Z,-2.79
2024-01-18T15:48:46.983Z,-2.81
2024-01-18T15:53:48.819Z,-2.90
2024-01-18T15:58:50.473Z,-2.83
2024-01-18T16:03:52.299Z,-2.85
2024-01-18T16:08:54.134Z,-2.82
2024-01-18T16:13:56.013Z,-2.82
2024-01-18T16:18:57.944Z,-2.80
2024-01-18T16:23:59.883Z,-2.72
2024-01-18T16:29:01.723Z,-2.71
2024-01-18T16:34:03.783Z,-2.47
2024-01-18T16:39:10.213Z,-2.32
2024-01-18T16:44:13.614Z,-2.28
2024-01-18T16:49:18.783Z,-2.24
2024-01-18T16:54:22.946Z,-2.31
2024-01-18T16:59:24.879Z,-2.31
2024-01-18T17:04:26.863Z,-2.22
2024-01-18T17:09:28.696Z,-2.21
2024-01-18T17:14:30.565Z,-2.22
2024-01-18T17:19:32.454Z,-2.22
2024-01-18T17:24:34.502Z,-2.19
2024-01-18T17:29:36.371Z,-2.17
2024-01-18T17:34:38.363Z,-2.23
2024-01-18T17:39:40.811Z,-2.16
2024-01-18T17:44:43.200Z,-2.12
2024-01-18T17:49:45.820Z,-2.11
2024-01-18T17:54:47.769Z,-2.17
2024-01-18T17:59:50.926Z,-2.31
2024-01-18T18:04:53.028Z,-2.29
2024-01-18T18:09:54.842Z,-2.31
2024-01-18T18:14:56.864Z,-2.37
2024-01-18T18:19:58.746Z,-2.56
2024-01-18T18:25:00.897Z,-2.62
2024-01-18T18:30:02.915Z,-2.55
2024-01-18T18:35:05.122Z,-2.46
2024-01-18T18:40:08.816Z,-2.27
2024-01-18T18:45:10.765Z,-2.45
2024-01-18T18:50:13.702Z,-2.50
2024-01-18T18:55:17.305Z,-2.49
2024-01-18T19:00:19.376Z,-2.58
2024-01-18T19:05:23.475Z,-2.50
2024-01-18T19:10:25.632Z,-2.68
2024-01-18T19:15:29.777Z,-2.73
2024-01-18T19:20:31.751Z,-2.62
2024-01-18T19:25:33.743Z,-2.71
2024-01-18T19:30:35.838Z,-2.63
2024-01-18T19:35:37.739Z,-2.66
2024-01-18T19:40:39.840Z,-2.66
2024-01-18T19:45:41.867Z,-2.54
2024-01-18T19:50:46.029Z,-2.43
2024-01-18T19:55:48.509Z,-2.46
2024-01-18T20:00:51.404Z,-2.33
2024-01-18T20:05:56.294Z,-2.34
2024-01-18T20:10:58.865Z,-2.30
2024-01-18T20:16:00.766Z,-2.30
2024-01-18T20:21:02.710Z,-2.41
2024-01-18T20:26:09.852Z,-2.38
2024-01-18T20:31:11.827Z,-2.40
2024-01-18T20:36:14.792Z,-2.59
2024-01-18T20:41:16.816Z,-2.63
2024-01-18T20:46:19.072Z,-2.61
2024-01-18T20:51:21.130Z,-2.55
2024-01-18T20:56:23.038Z,-2.50
2024-01-18T21:01:25.263Z,-2.46
2024-01-18T21:06:27.606Z,-2.46
2024-01-18T21:11:29.595Z,-2.35
2024-01-18T21:16:31.422Z,-2.33
2024-01-18T21:21:33.441Z,-2.30
2024-01-18T21:26:35.525Z,-2.26
2024-01-18T21:31:37.491Z,-2.21
2024-01-18T21:36:39.618Z,-2.22
2024-01-18T21:41:43.080Z,-2.22
2024-01-18T21:46:46.238Z,-2.29
2024-01-18T21:51:49.268Z,-2.27
2024-01-18T21:56:51.263Z,-2.24
2024-01-18T22:01:53.425Z,-2.23
2024-01-18T22:06:55.505Z,-2.19
2024-01-18T22:11:57.248Z,-2.18
2024-01-18T22:16:58.892Z,-2.33
2024-01-18T22:22:00.726Z,-2.22
2024-01-18T22:27:02.324Z,-2.22
2024-01-18T22:32:04.236Z,-2.19
2024-01-18T22:37:05.843Z,-2.24
2024-01-18T22:42:09.826Z,-2.31
2024-01-18T22:47:12.052Z,-2.30
2024-01-18T22:52:13.736Z,-2.35
2024-01-18T22:57:15.439Z,-2.31
2024-01-18T23:02:18.060Z,-2.37
2024-01-18T23:07:19.763Z,-2.42
2024-01-18T23:12:21.344Z,-2.43
2024-01-18T23:17:22.992Z,-2.42
2024-01-18T23:22:24.623Z,-2.44
2024-01-18T23:27:26.515Z,-2.41
2024-01-18T23:32:29.237Z,-2.48
2024-01-18T23:37:30.899Z,-2.44
2024-01-18T23:42:32.836Z,-2.51
2024-01-18T23:47:34.521Z,-2.59
2024-01-18T23:52:36.162Z,-2.59
2024-01-18T23:57:37.856Z,-2.53
